Atasoylar — TCGK — position and weather

sailwx.info

Track history (hours):
 
Tides and Currents Weather Stations Pressure Air Temp Water Temp Dewpoint Dewpoint Depression Visibility Wind Speed Wind Dir Waves Ship Positions

Atasoylar

Last reported at 2017-Oct-17 06:00 UTC. Time now 2017-Oct-17 06:13 UTC.
Position N 40°45' E 029°29'.

Length 99 m; draft 6.4 m.

Type: Cargo ship. MMSI: 271000269.

Date/timePositionNaut miles runAvg speedWind from/ knotsBaromVisibWave heightAir tempDewpointWater temp
2017-Oct-17 06:00N 40°45' E 029°29'5 9.8
2017-Oct-17 05:30N 40°44' E 029°22'5 9.5
2017-Oct-17 04:59N 40°44' E 029°16'5 9.9
2017-Oct-17 04:30N 40°44' E 029°10'5 9.6
2017-Oct-17 04:00N 40°44' E 029°03'  
2017-Oct-14 17:36N 36°02' E 030°24'1 9.5
2017-Oct-14 17:30N 36°01' E 030°25'5 9.5
2017-Oct-14 17:00N 36°01' E 030°30'13 9.4
2017-Oct-14 15:40N 36°00' E 030°46'2 9.0
2017-Oct-14 15:23N 36°00' E 030°49'4 9.1
2017-Oct-14 14:58N 36°00' E 030°54'4 9.2
2017-Oct-14 14:30N 36°00' E 030°59'5 9.1
2017-Oct-14 14:00N 36°00' E 031°05'4 9.2
2017-Oct-14 13:30N 36°00' E 031°10'5 9.3
2017-Oct-14 12:58N 36°01' E 031°16'  
Track history (hours):
 
Tides and Currents Weather Stations Pressure Air Temp Water Temp Dewpoint Dewpoint Depression Visibility Wind Speed Wind Dir Waves Ship Positions

Atasoylar

Last reported at 2017-Oct-17 06:00 UTC. Time now 2017-Oct-17 06:13 UTC.
Position N 40°45' E 029°29'.

Length 99 m; draft 6.4 m.

Type: Cargo ship. MMSI: 271000269.

Date/timePositionNaut miles runAvg speedWind from/ knotsBaromVisibWave heightAir tempDewpointWater temp
2017-Oct-17 06:00N 40°45' E 029°29'5 9.8
2017-Oct-17 05:30N 40°44' E 029°22'5 9.5
2017-Oct-17 04:59N 40°44' E 029°16'5 9.9
2017-Oct-17 04:30N 40°44' E 029°10'5 9.6
2017-Oct-17 04:00N 40°44' E 029°03'  
2017-Oct-14 17:36N 36°02' E 030°24'1 9.5
2017-Oct-14 17:30N 36°01' E 030°25'5 9.5
2017-Oct-14 17:00N 36°01' E 030°30'13 9.4
2017-Oct-14 15:40N 36°00' E 030°46'2 9.0
2017-Oct-14 15:23N 36°00' E 030°49'4 9.1
2017-Oct-14 14:58N 36°00' E 030°54'4 9.2
2017-Oct-14 14:30N 36°00' E 030°59'5 9.1
2017-Oct-14 14:00N 36°00' E 031°05'4 9.2
2017-Oct-14 13:30N 36°00' E 031°10'5 9.3
2017-Oct-14 12:58N 36°01' E 031°16'  

Dump ship's entire track history